latitude = 43° 31' 23''N | Length = 005° 37' 16''W

gijón weather station Surf Gijón - Asturias
26 meters above sea level | 85,3018 feet above sea level

Surf variety

One variety of stand-up surfing is paddle boarding. Another prominent form of surfing is body boarding, when a surfer rides a wave on a bodyboard, either lying on their belly, drop knee, or sometimes even standing up on a body board. Other types of surfing include kneeboard, surf matting (riding inflatable mats), and using foils. Body surfing, where the wave is surfed without a board, using the surfer's own body to catch and ride the wave, is very common and is considered by some to be the purest form of surfing.

Date, time, temperature, wind direction and speed, humidity and pressure

  • 19-11-2018 07:00:00 | 6.40°C | Sur |3.00 km/h | 100.00% | 1000.30 hPa
  • 19-11-2018 06:00:00 | 6.90°C | Sur |3.00 km/h | 100.00% | 999.80 hPa
  • 19-11-2018 05:00:00 | 7.90°C | Sudeste |3.00 km/h | 99.00% | 999.50 hPa
  • 19-11-2018 04:00:00 | 9.20°C | Norte |3.00 km/h | 99.00% | 999.20 hPa
  • 19-11-2018 03:00:00 | 10.40°C | Sur |5.00 km/h | 99.00% | 999.30 hPa
  • 19-11-2018 02:00:00 | 11.00°C | Sur |2.00 km/h | 99.00% | 999.50 hPa
  • 19-11-2018 01:00:00 | 11.80°C | Este |6.00 km/h | 97.00% | 999.70 hPa
  • 19-11-2018 00:00:00 | 11.80°C | Sudeste |5.00 km/h | 99.00% | 1000.40 hPa
  • 18-11-2018 23:00:00 | 11.50°C | Este |4.00 km/h | 99.00% | 1000.50 hPa
  • 18-11-2018 22:00:00 | 11.50°C | Este |4.00 km/h | 98.00% | 1000.70 hPa
  • 18-11-2018 21:00:00 | 11.50°C | Sudeste |4.00 km/h | 97.00% | 1000.20 hPa
  • 18-11-2018 20:00:00 | 12.00°C | Este |3.00 km/h | 95.00% | 1000.00 hPa
  • 18-11-2018 19:00:00 | 12.70°C | Sudeste |3.00 km/h | 91.00% | 1000.20 hPa
  • 18-11-2018 18:00:00 | 13.80°C | Este |2.00 km/h | 93.00% | 1000.10 hPa
  • 18-11-2018 17:00:00 | 14.00°C | Este |7.00 km/h | 93.00% | 1000.50 hPa
  • 18-11-2018 16:00:00 | 13.50°C | Este |9.00 km/h | 94.00% | 1000.90 hPa
  • 18-11-2018 15:00:00 | 13.90°C | Nordeste |10.00 km/h | 92.00% | 1001.20 hPa
  • 18-11-2018 14:00:00 | 13.80°C | Este |8.00 km/h | 92.00% | 1001.70 hPa
  • 18-11-2018 13:00:00 | 14.10°C | Este |9.00 km/h | 90.00% | 1002.20 hPa
  • 18-11-2018 12:00:00 | 12.20°C | Calma |0.00 km/h | 95.00% | 1002.90 hPa
  • 18-11-2018 11:00:00 | 11.40°C | Norte |4.00 km/h | 97.00% | 1003.40 hPa
  • 18-11-2018 10:00:00 | 10.40°C | Sur |3.00 km/h | 100.00% | 1003.60 hPa
  • 18-11-2018 09:00:00 | 9.40°C | Sudoeste |3.00 km/h | 100.00% | 1003.50 hPa
  • 18-11-2018 08:00:00 | 8.30°C | Calma |0.00 km/h | 100.00% | 1003.40 hPa

    • The best beaches of Asturias.

      Maps, GPS coordinates, wind, tidal wave, Asturias news, photos and more related to the world of Surf data. https://surf-asturias.com